Nearby METAR Reports

 

KBGR - Bangor, Maine, USA
Distance from station: E 5mi, 8km
Updated: Wed, 17-Oct-2018 5:53pm EDT
Mostly cloudy
Mostly cloudy
 Wind from SSW
Wind: SSW 5 mph , 7 km/h
Temperature: 45°F , 7°C
Wind Chill: 42°F , 6°C
Dew Point: 41°F , 5°C
Humidity: 87%
Barometer: 29.67 inHg , 1004.7 hPa
Clouds: Mostly cloudy
Visibility: 10 miles , 16 km
Cloud details: Partly cloudy 4000 ft
Mostly cloudy 11000 ft
2018/10/17 21:53 KBGR 172153Z 21004KT 10SM SCT040 BKN110 07/05 A2967 RMK AO2 RAE13 SLP049 P0001 T00670050
KBHB - Bar Harbor, Maine, USA
Distance from station: SE 37mi, 59km
Updated: Wed, 17-Oct-2018 5:56pm EDT
Mostly cloudy
Mostly cloudy
 Wind from WNW
Wind: WNW 3 mph , 6 km/h
Temperature: 43°F , 6°C
Dew Point: 41°F , 5°C
Humidity: 93%
Barometer: 29.68 inHg , 1005.1 hPa
Clouds: Mostly cloudy
Visibility: 10 miles , 16 km
Cloud details: Partly cloudy 4000 ft
Partly cloudy 5500 ft
Mostly cloudy 9000 ft
2018/10/17 21:56 KBHB 172156Z AUTO 30003KT 10SM SCT040 SCT055 BKN090 06/05 A2968 RMK AO2 WSHFT 2106 RAB11E55 SLP056 P0000 T00610050
 
KWVL - Waterville, Maine, USA
Distance from station: WSW 42mi, 68km
Updated: Wed, 17-Oct-2018 5:56pm EDT
Clear
Clear
 Wind from W
Wind: W 9 mph , 15 km/h
Temperature: 45°F , 7°C
Wind Chill: 40°F , 4°C
Dew Point: 37°F , 3°C
Humidity: 76%
Barometer: 29.67 inHg , 1004.7 hPa
Clouds: Clear
Visibility: 10 miles , 16 km
2018/10/17 21:56 KWVL 172156Z AUTO 26008KT 10SM CLR 07/03 A2967 RMK AO2 SLP077 T00720033 $
KRKD - Rockland/Knox, Maine, USA
Distance from station: S 52mi, 84km
Updated: Wed, 17-Oct-2018 5:56pm EDT
Light rain, Mostly cloudy
Light rain, Mostly cloudy
 Wind from WNW
Wind: WNW 14 mph , 22 km/h, Gust: 23 mph , 37 km/h
Temperature: 48°F , 9°C
Wind Chill: 42°F , 6°C
Dew Point: 37°F , 3°C
Humidity: 66%
Barometer: 29.69 inHg , 1005.4 hPa
Summary: Light rain
Clouds: Mostly cloudy
Visibility: 10 miles , 16 km
Cloud details: Few Clouds 5000 ft
Mostly cloudy 7000 ft
Mostly cloudy 8500 ft
2018/10/17 21:56 KRKD 172156Z AUTO 30012G20KT 10SM -RA FEW050 BKN070 BKN085 09/03 A2969 RMK AO2 LTG DSNT E RAB54 SLP057 P0000 T00940033
 
KAUG - Augusta, Maine, USA
Distance from station: SW 55mi, 89km
Updated: Wed, 17-Oct-2018 5:53pm EDT
Few Clouds
Few Clouds
 Wind from W
Wind: W 8 mph , 13 km/h
Temperature: 46°F , 8°C
Wind Chill: 42°F , 6°C
Dew Point: 37°F , 3°C
Humidity: 71%
Barometer: 29.71 inHg , 1006.1 hPa
Clouds: Few Clouds
Visibility: 10 miles , 16 km
Cloud details: Few Clouds 6500 ft
Few Clouds 10000 ft
2018/10/17 21:53 KAUG 172153Z AUTO 26007KT 10SM FEW065 FEW100 08/03 A2971 RMK AO2 SLP062 T00780033
KGNR - Greenville, Maine, USA
Distance from station: NW 55mi, 89km
Updated: Wed, 17-Oct-2018 5:56pm EDT

 Wind from NW
Wind: NW 17 mph , 28 km/h, Gust: 29 mph , 46 km/h
Temperature: 37°F , 3°C
Wind Chill: 27°F , -3°C
Dew Point: 34°F , 1°C
Humidity: 87%
Barometer: 29.62 inHg , 1003 hPa
2018/10/17 21:56 KGNR 172156Z AUTO 31015G25KT 03/01 A2962 RMK AO1 PK WND 31026/2145 SLP044 T00330006
 
KMLT - Millinocket, Maine, USA
Distance from station: N 59mi, 95km
Updated: Wed, 17-Oct-2018 5:53pm EDT
Mostly cloudy
Mostly cloudy
 Wind from WNW
Wind: WNW 13 mph , 20 km/h, Gust: 22 mph , 35 km/h
Temperature: 45°F , 7°C
Wind Chill: 39°F , 4°C
Dew Point: 34°F , 1°C
Humidity: 66%
Barometer: 29.64 inHg , 1003.7 hPa
Clouds: Mostly cloudy
Visibility: 10 miles , 16 km
Cloud details: Few Clouds 3600 ft
Partly cloudy 4800 ft
Mostly cloudy 6500 ft
2018/10/17 21:53 KMLT 172153Z AUTO 30011G19KT 10SM FEW036 SCT048 BKN065 07/01 A2964 RMK AO2 SLP046 T00720011
KIWI - Wiscasset, Maine, USA
Distance from station: SW 70mi, 113km
Updated: Wed, 17-Oct-2018 5:53pm EDT
Overcast
Overcast
 Wind from varies
Wind: varies 7 mph , 11 km/h
Temperature: 50°F , 10°C
Wind Chill: 47°F , 8°C
Dew Point: 39°F , 4°C
Humidity: 67%
Barometer: 29.73 inHg , 1006.8 hPa
Clouds: Overcast
Visibility: 10 miles , 16 km
Cloud details: Mostly cloudy 4200 ft
Mostly cloudy 5500 ft
Overcast 8000 ft
2018/10/17 21:53 KIWI 172153Z AUTO VRB06KT 10SM BKN042 BKN055 OVC080 10/04 A2973 RMK AO2 RAE08 SLP068 P0000 T01000039
 
CWSS - St. Stephen (mar, New Brunswick, Canada
Distance from station: ENE 86mi, 138km
Updated: Wed, 17-Oct-2018 6:00pm EDT

 Wind from W
Wind: W 3 mph , 6 km/h
Temperature: 48°F , 9°C
Dew Point: 36°F , 2°C
Humidity: 62%
2018/10/17 22:00 CWSS 172200Z AUTO 27003KT 09/02 RMK AO1 SLP027 T00940024
KLEW - Auburn/Lewiston, Maine, USA
Distance from station: SW 86mi, 138km
Updated: Wed, 17-Oct-2018 5:56pm EDT
Mostly cloudy
Mostly cloudy
 Wind from NW
Wind: NW 12 mph , 19 km/h, Gust: 20 mph , 31 km/h
Temperature: 46°F , 8°C
Wind Chill: 40°F , 4°C
Dew Point: 36°F , 2°C
Humidity: 66%
Barometer: 29.73 inHg , 1006.8 hPa
Clouds: Mostly cloudy
Visibility: 10 miles , 16 km
Cloud details: Mostly cloudy 3900 ft
2018/10/17 21:56 KLEW 172156Z AUTO 31010G17KT 10SM BKN039 08/02 A2973 RMK AO2 SLP085 T00780022
 
KHUL - Houlton, Maine, USA
Distance from station: NNE 105mi, 169km
Updated: Wed, 17-Oct-2018 5:53pm EDT
Overcast
Overcast
 Wind from WSW
Wind: WSW 6 mph , 9 km/h
Temperature: 43°F , 6°C
Wind Chill: 39°F , 4°C
Dew Point: 39°F , 4°C
Humidity: 87%
Barometer: 29.59 inHg , 1002 hPa
Clouds: Overcast
Visibility: 10 miles , 16 km
Cloud details: Partly cloudy 4800 ft
Overcast 6000 ft
2018/10/17 21:53 KHUL 172153Z AUTO 24005KT 10SM SCT048 OVC060 06/04 A2959 RMK AO2 RAB12E31 SLP025 P0003 T00560044
KPWM - Portland, Maine, USA
Distance from station: SW 105mi, 170km
Updated: Wed, 17-Oct-2018 5:51pm EDT
Partly cloudy
Partly cloudy
 Wind from SW
Wind: SW 9 mph , 15 km/h
Temperature: 46°F , 8°C
Wind Chill: 41°F , 5°C
Dew Point: 41°F , 5°C
Humidity: 82%
Barometer: 29.74 inHg , 1007.1 hPa
Clouds: Partly cloudy
Visibility: 10 miles , 16 km
Cloud details: Few Clouds 7500 ft
Few Clouds 9500 ft
Partly cloudy 12000 ft
2018/10/17 21:51 KPWM 172151Z 23008KT 10SM FEW075 FEW095 SCT120 08/05 A2974 RMK AO2 PK WND 29030/2054 RAE25 SLP071 P0001 T00830050
 
KBML - Berlin, New Hampshire, USA
Distance from station: W 113mi, 181km
Updated: Wed, 17-Oct-2018 5:52pm EDT
Clear
Clear
 Wind from W
Wind: W 7 mph , 11 km/h
Temperature: 39°F , 4°C
Wind Chill: 34°F , 1°C
Dew Point: 34°F , 1°C
Humidity: 81%
Barometer: 29.73 inHg , 1006.8 hPa
Clouds: Clear
Visibility: 10 miles , 16 km
2018/10/17 21:52 KBML 172152Z AUTO 28006KT 10SM CLR 04/01 A2973 RMK AO2 RAB10E31 SLP079 P0002 T00440011
KIZG - Fryeburg, Maine, USA
Distance from station: WSW 116mi, 186km
Updated: Wed, 17-Oct-2018 5:54pm EDT
Few Clouds
Few Clouds
 Wind from W
Wind: W 5 mph , 7 km/h
Temperature: 46°F , 8°C
Wind Chill: 44°F , 7°C
Dew Point: 32°F , 0°C
Humidity: 57%
Barometer: 29.74 inHg , 1007.1 hPa
Clouds: Few Clouds
Visibility: 10 miles , 16 km
Cloud details: Few Clouds 11000 ft
2018/10/17 21:54 KIZG 172154Z AUTO 27004KT 10SM FEW110 08/00 A2974 RMK AO2 SLP074 T00780000
 
CWPE - Point Lepreau, New Brunswick, Canada
Distance from station: E 121mi, 195km
Updated: Wed, 17-Oct-2018 6:00pm EDT

 Wind from WSW
Wind: WSW 7 mph , 11 km/h
Temperature: 50°F , 10°C
Wind Chill: 47°F , 8°C
Dew Point: 45°F , 7°C
Humidity: 82%
2018/10/17 22:00 CWPE 172200Z AUTO 24006KT 10/07 RMK AO1 2PAST HR 5013 SLP021 P0001 T01020067 50011
KMWN - Mount Washington, New Hampshire, USA
Distance from station: WSW 123mi, 198km
Updated: Wed, 17-Oct-2018 5:50pm EDT
Light snow, Showers, Freezing, Fog, Blowing, Snow, Overcast
Light snow, Showers, Freezing, Fog, Blowing, Snow, Overcast
 Wind from WNW
Wind: WNW 56 mph , 91 km/h, Gust: 67 mph , 107 km/h
Temperature: 19°F , -7°C
Wind Chill: -5°F , -21°C
Dew Point: 19°F , -7°C
Humidity: 100%
Summary: Light snow, Showers, Freezing, Fog, Blowing, Snow
Clouds: Overcast
Visibility: 0 miles , 0 km
Cloud details: Overcast 0 ft
2018/10/17 21:50 KMWN 172150Z 30049G58KT 0SM -SHSN FZFG BLSN VV000 M07/M07 RMK VRY LGT ICG
 
KPQI - Presque Isle, Maine, USA
Distance from station: ESE 136mi, 219km
Updated: Wed, 17-Oct-2018 5:56pm EDT
Few Clouds
Few Clouds
 Wind from SW
Wind: SW 6 mph , 9 km/h
Temperature: 41°F , 5°C
Wind Chill: 37°F , 3°C
Dew Point: 34°F , 1°C
Humidity: 76%
Barometer: 29.58 inHg , 1001.7 hPa
Clouds: Few Clouds
Visibility: 10 miles , 16 km
Cloud details: Few Clouds 2900 ft
2018/10/17 21:56 KPQI 172156Z AUTO 23005KT 10SM FEW029 05/01 A2958 RMK AO2 RAE06 SLP063 P0000 T00500011
KCAR - Caribou, Maine, USA
Distance from station: NNE 148mi, 238km
Updated: Wed, 17-Oct-2018 5:54pm EDT
Clear
Clear
 Wind from W
Wind: W 7 mph , 11 km/h
Temperature: 41°F , 5°C
Wind Chill: 36°F , 2°C
Dew Point: 34°F , 1°C
Humidity: 76%
Barometer: 29.55 inHg , 1000.7 hPa
Clouds: Clear
Visibility: 10 miles , 16 km
2018/10/17 21:54 KCAR 172154Z AUTO 26006KT 10SM CLR 05/01 A2955 RMK AO2 RAE03 SLP014 P0000 T00500011